Time;durP1;ratioP1;P1;durP2;ratioP2;P2;SDS_P1;SDS_P2;PMS_P1;PMS_P2;Temp;Humidity;BMP_temperature;BMP_pressure;BME280_temperature;BME280_humidity;BME280_pressure;Samples;Min_cycle;Max_cycle;Signal;HPM_P1;HPM_P2
2024/01/27 00:02:17;;;;;;;0.43;0.20;;;;;;;5.07;90.49;103587.91;5057400;27;97233;-28
2024/01/27 00:04:42;;;;;;;8.70;0.90;;;;;;;5.08;90.21;103589.72;5056683;27;96580;-28
2024/01/27 00:07:07;;;;;;;0.15;0.03;;;;;;;5.06;90.23;103595.06;5057269;27;96841;-27
2024/01/27 00:09:33;;;;;;;4.55;0.10;;;;;;;5.06;90.51;103581.66;5055944;27;97845;-28
2024/01/27 00:11:58;;;;;;;0.00;0.00;;;;;;;5.04;90.29;103578.06;5056711;27;99295;-27
2024/01/27 00:14:24;;;;;;;0.98;0.55;;;;;;;5.04;89.97;103591.47;5057174;27;96586;-27
2024/01/27 00:16:49;;;;;;;0.20;0.00;;;;;;;4.99;90.24;103587.88;5057207;27;96786;-27
2024/01/27 00:19:14;;;;;;;0.08;0.08;;;;;;;5.02;90.51;103589.69;5057062;27;97283;-28
2024/01/27 00:21:40;;;;;;;0.22;0.15;;;;;;;4.95;90.50;103578.00;5057353;27;97770;-28
2024/01/27 00:24:05;;;;;;;0.32;0.22;;;;;;;4.98;90.50;103585.16;5057221;27;96692;-28
2024/01/27 00:26:30;;;;;;;0.47;0.22;;;;;;;4.97;90.67;103583.38;5057059;27;96772;-28
2024/01/27 00:28:56;;;;;;;0.25;0.25;;;;;;;4.93;90.62;103587.81;5056185;27;97309;-29
2024/01/27 00:31:22;;;;;;;0.00;0.00;;;;;;;4.92;90.56;103587.84;5056368;27;99727;-28
2024/01/27 00:33:47;;;;;;;0.47;0.28;;;;;;;4.91;90.33;103589.63;5056645;27;97093;-27
2024/01/27 00:36:12;;;;;;;0.57;0.52;;;;;;;4.92;90.71;103587.84;5056880;27;96862;-28
2024/01/27 00:38:38;;;;;;;1.40;0.22;;;;;;;4.96;90.76;103595.94;5056548;27;97856;-28
2024/01/27 00:41:04;;;;;;;0.60;0.60;;;;;;;4.91;90.54;103600.38;5054866;27;99047;-28
2024/01/27 00:43:30;;;;;;;0.55;0.32;;;;;;;4.91;90.56;103595.00;5055346;27;96660;-29
2024/01/27 00:45:56;;;;;;;0.20;0.20;;;;;;;4.97;90.96;103600.38;5055579;27;96818;-27
2024/01/27 00:48:22;;;;;;;0.22;0.20;;;;;;;4.94;90.75;103597.69;5054789;27;100788;-28
2024/01/27 00:50:47;;;;;;;6.32;0.45;;;;;;;4.92;90.48;103588.72;5056279;27;98866;-28
2024/01/27 00:53:13;;;;;;;0.82;0.45;;;;;;;4.90;90.81;103593.19;5055974;27;96507;-27
2024/01/27 00:55:38;;;;;;;0.75;0.30;;;;;;;4.91;90.24;103603.06;5056446;27;96776;-27
2024/01/27 00:58:04;;;;;;;0.35;0.20;;;;;;;4.95;90.32;103615.59;5055162;27;97675;-28
2024/01/27 01:00:29;;;;;;;0.13;0.10;;;;;;;4.91;90.23;103611.13;5055955;27;99112;-28
2024/01/27 01:02:54;;;;;;;0.00;0.00;;;;;;;4.92;90.66;103614.69;5056613;27;96604;-27
2024/01/27 01:05:20;;;;;;;0.22;0.20;;;;;;;4.79;91.14;103616.38;5056410;27;96741;-27
2024/01/27 01:07:45;;;;;;;0.08;0.08;;;;;;;4.82;91.29;103616.41;5056084;27;97799;-29
2024/01/27 01:10:10;;;;;;;0.38;0.05;;;;;;;4.79;91.14;103600.25;5056333;27;97305;-29
2024/01/27 01:12:36;;;;;;;0.15;0.15;;;;;;;4.78;90.74;103595.78;5056381;27;96470;-28
2024/01/27 01:15:02;;;;;;;0.25;0.17;;;;;;;4.79;91.19;103603.88;5056147;27;96796;-27
2024/01/27 01:17:27;;;;;;;0.00;0.00;;;;;;;4.82;91.14;103609.25;5054938;27;99213;-27
2024/01/27 01:19:53;;;;;;;0.55;0.30;;;;;;;4.71;90.75;103600.22;5055433;27;99138;-27
2024/01/27 01:22:18;;;;;;;0.47;0.20;;;;;;;4.82;90.94;103600.31;5056115;27;96588;-27
2024/01/27 01:24:43;;;;;;;0.60;0.40;;;;;;;4.80;90.71;103604.75;5056150;27;96902;-28
2024/01/27 01:27:09;;;;;;;1.30;0.50;;;;;;;4.82;90.99;103603.00;5055651;27;97844;-27
2024/01/27 01:29:35;;;;;;;0.40;0.28;;;;;;;4.81;90.89;103606.53;5055812;27;97207;-28
2024/01/27 01:32:02;;;;;;;0.45;0.40;;;;;;;4.70;90.96;103597.53;5055671;27;96495;-28
2024/01/27 01:34:28;;;;;;;2.20;0.52;;;;;;;4.72;91.26;103603.78;5056042;27;96888;-28
2024/01/27 01:36:54;;;;;;;2.92;0.35;;;;;;;4.64;91.68;103585.84;5055411;27;99062;-27
2024/01/27 01:39:19;;;;;;;0.52;0.22;;;;;;;4.73;91.60;103598.44;5055385;27;99301;-28
2024/01/27 01:41:44;;;;;;;0.47;0.15;;;;;;;4.73;91.45;103581.44;5055405;27;96479;-28
2024/01/27 01:44:10;;;;;;;0.38;0.20;;;;;;;4.78;91.42;103598.47;5055879;27;96865;-27
2024/01/27 01:46:35;;;;;;;2.10;0.55;;;;;;;4.77;91.13;103600.28;5055447;27;97912;-29
2024/01/27 01:49:01;;;;;;;0.73;0.10;;;;;;;4.76;91.40;103600.25;5055336;27;98024;-27
2024/01/27 01:51:30;;;;;;;0.05;0.05;;;;;;;4.69;91.02;103596.63;5055607;27;96634;-28
2024/01/27 01:53:58;;;;;;;0.73;0.10;;;;;;;4.59;91.38;103587.59;5053832;27;96830;-28
2024/01/27 01:56:24;;;;;;;1.92;1.05;;;;;;;4.65;91.44;103606.44;5053744;27;100880;-27
2024/01/27 01:58:50;;;;;;;0.13;0.13;;;;;;;4.62;92.14;103594.78;5053653;27;101517;-27
2024/01/27 02:01:17;;;;;;;0.15;0.15;;;;;;;4.59;91.71;103614.44;5055495;27;96606;-28
2024/01/27 02:03:54;;;;;;;0.15;0.08;;;;;;;4.59;91.63;103608.19;5054064;27;96832;-28
2024/01/27 02:06:20;;;;;;;4.35;0.57;;;;;;;4.55;92.53;103607.25;5053157;27;101023;-28
2024/01/27 02:08:45;;;;;;;0.80;0.50;;;;;;;4.59;92.09;103618.91;5055119;27;97792;-27
2024/01/27 02:11:10;;;;;;;0.10;0.10;;;;;;;4.66;92.42;103621.66;5055379;27;96593;-28
2024/01/27 02:13:36;;;;;;;1.00;0.25;;;;;;;4.65;92.07;103611.81;5055023;27;96562;-28
2024/01/27 02:16:01;;;;;;;0.30;0.30;;;;;;;4.62;91.88;103619.84;5054724;27;98876;-28
2024/01/27 02:18:27;;;;;;;0.10;0.10;;;;;;;4.56;91.47;103625.16;5054905;27;97298;-28
2024/01/27 02:20:52;;;;;;;0.43;0.30;;;;;;;4.57;91.91;103629.63;5055356;27;96696;-27
2024/01/27 02:23:17;;;;;;;0.35;0.20;;;;;;;4.55;92.36;103622.44;5055759;27;96719;-28
2024/01/27 02:25:43;;;;;;;0.38;0.20;;;;;;;4.56;92.59;103621.59;5054962;27;97498;-27
2024/01/27 02:28:08;;;;;;;0.17;0.17;;;;;;;4.56;92.81;103619.78;5054807;27;97184;-27
2024/01/27 02:30:33;;;;;;;0.68;0.20;;;;;;;4.50;92.60;103609.00;5054540;27;96683;-29
2024/01/27 02:32:59;;;;;;;0.20;0.00;;;;;;;4.54;92.74;103620.66;5056953;27;96753;-27
2024/01/27 02:35:25;;;;;;;2.67;0.50;;;;;;;4.55;92.30;103623.34;5058566;27;97734;-27
2024/01/27 02:37:50;;;;;;;0.20;0.20;;;;;;;4.48;92.62;103621.50;5058327;27;99179;-27
2024/01/27 02:40:16;;;;;;;0.50;0.25;;;;;;;4.45;92.52;103619.69;5058479;27;96666;-28
2024/01/27 02:42:44;;;;;;;0.30;0.28;;;;;;;4.47;92.82;103633.13;5058789;27;96678;-28
2024/01/27 02:45:11;;;;;;;0.32;0.32;;;;;;;4.43;93.24;103613.44;5057878;27;99264;-27
2024/01/27 02:47:37;;;;;;;1.25;0.38;;;;;;;4.49;93.06;103612.56;5057078;27;100596;-27
2024/01/27 02:50:02;;;;;;;0.20;0.20;;;;;;;4.44;93.02;103608.97;5058649;27;96594;-27
2024/01/27 02:52:28;;;;;;;0.30;0.28;;;;;;;4.45;92.32;103610.75;5058642;27;96620;-27
2024/01/27 02:54:54;;;;;;;0.45;0.38;;;;;;;4.45;92.31;103613.44;5057293;27;99209;-27
2024/01/27 02:57:19;;;;;;;0.45;0.35;;;;;;;4.44;92.82;103614.31;5055876;27;100903;-27
2024/01/27 02:59:48;;;;;;;0.10;0.10;;;;;;;4.40;92.82;103607.13;5058257;27;96824;-27
2024/01/27 03:02:13;;;;;;;0.35;0.35;;;;;;;4.37;92.94;103605.31;5056801;27;96789;-28
2024/01/27 03:04:39;;;;;;;0.03;0.03;;;;;;;4.34;92.58;103615.09;5058126;27;97328;-27
2024/01/27 03:07:04;;;;;;;0.93;0.80;;;;;;;4.31;93.01;103624.03;5058294;27;96650;-29
2024/01/27 03:09:30;;;;;;;0.73;0.45;;;;;;;4.24;92.99;103632.91;5057897;27;96599;-28
2024/01/27 03:11:56;;;;;;;0.88;0.65;;;;;;;4.21;93.68;103623.03;5057147;27;96869;-29
2024/01/27 03:14:22;;;;;;;0.88;0.57;;;;;;;4.23;93.64;103645.41;5055945;27;100880;-29
2024/01/27 03:16:47;;;;;;;0.52;0.45;;;;;;;4.05;94.02;103642.53;5057607;27;99074;-27
2024/01/27 03:19:12;;;;;;;0.15;0.15;;;;;;;4.11;94.57;103639.94;5057540;27;96611;-27
2024/01/27 03:21:38;;;;;;;1.25;0.77;;;;;;;4.09;94.90;103625.59;5057845;27;96858;-27
2024/01/27 03:24:04;;;;;;;8.32;1.60;;;;;;;4.10;94.38;103637.22;5057654;27;97789;-27
2024/01/27 03:26:29;;;;;;;1.27;0.52;;;;;;;4.09;94.74;103633.66;5057401;27;99144;-28
2024/01/27 03:28:54;;;;;;;0.93;0.77;;;;;;;4.09;94.61;103622.94;5057486;27;96861;-28
2024/01/27 03:31:20;;;;;;;1.90;0.90;;;;;;;4.11;94.38;103645.31;5057982;27;96771;-28
2024/01/27 03:33:45;;;;;;;3.50;1.45;;;;;;;4.11;94.33;103641.72;5057691;27;97292;-28
2024/01/27 03:36:14;;;;;;;1.70;1.05;;;;;;;4.10;94.59;103635.47;5057703;27;99147;-27
2024/01/27 03:38:42;;;;;;;0.13;0.13;;;;;;;4.06;94.54;103633.63;5057883;27;96516;-27
2024/01/27 03:41:08;;;;;;;0.45;0.45;;;;;;;4.07;94.95;103631.84;5056292;27;96817;-29
2024/01/27 03:43:34;;;;;;;2.08;0.77;;;;;;;4.06;94.71;103630.94;5055751;27;97821;-27
2024/01/27 03:45:59;;;;;;;2.55;1.05;;;;;;;4.03;94.15;103630.94;5055555;27;100704;-27
2024/01/27 03:48:25;;;;;;;1.65;1.23;;;;;;;4.02;94.00;103639.84;5056053;27;96644;-28
2024/01/27 03:50:50;;;;;;;0.50;0.50;;;;;;;4.04;94.48;103638.97;5057635;27;96727;-28
2024/01/27 03:53:16;;;;;;;1.80;1.35;;;;;;;4.03;94.93;103626.44;5057109;27;97343;-27
2024/01/27 03:55:41;;;;;;;1.45;0.75;;;;;;;3.96;94.92;103618.34;5057141;27;97837;-27
2024/01/27 03:58:07;;;;;;;1.02;0.70;;;;;;;4.00;94.67;103630.88;5056902;27;96769;-27
2024/01/27 04:00:33;;;;;;;0.80;0.80;;;;;;;3.96;94.48;103631.75;5057527;27;96800;-28
2024/01/27 04:03:02;;;;;;;0.52;0.52;;;;;;;3.97;94.78;103633.53;5056899;27;99291;-28
2024/01/27 04:05:30;;;;;;;0.40;0.40;;;;;;;3.94;94.66;103629.03;5055557;27;100979;-27
2024/01/27 04:07:55;;;;;;;2.35;1.40;;;;;;;3.89;95.36;103617.38;5055488;27;96547;-28
2024/01/27 04:10:22;;;;;;;2.70;1.15;;;;;;;3.91;94.91;103622.72;5057291;27;96784;-29
2024/01/27 04:12:48;;;;;;;0.95;0.88;;;;;;;3.89;95.00;103628.09;5055490;27;99255;-27
2024/01/27 04:15:13;;;;;;;4.75;1.33;;;;;;;3.88;95.28;103626.28;5057028;27;97282;-27
2024/01/27 04:17:40;;;;;;;1.52;1.17;;;;;;;3.89;95.02;103635.25;5056894;27;96592;-28
2024/01/27 04:20:07;;;;;;;1.75;1.10;;;;;;;3.85;94.61;103633.41;5055792;27;96761;-27
2024/01/27 04:22:33;;;;;;;2.17;1.33;;;;;;;3.86;94.97;103648.59;5055298;27;102086;-29
2024/01/27 04:24:58;;;;;;;0.95;0.77;;;;;;;3.79;95.37;103645.84;5057037;27;97286;-28
2024/01/27 04:27:24;;;;;;;1.02;0.93;;;;;;;3.83;95.43;103646.78;5056759;27;96538;-27
2024/01/27 04:29:49;;;;;;;0.40;0.28;;;;;;;3.78;95.36;103633.31;5056959;27;96823;-27
2024/01/27 04:32:14;;;;;;;1.85;1.23;;;;;;;3.83;95.08;103639.63;5056162;27;97283;-29
2024/01/27 04:34:40;;;;;;;0.70;0.70;;;;;;;3.79;95.28;103637.81;5056545;27;97261;-27
2024/01/27 04:37:05;;;;;;;1.38;1.27;;;;;;;3.76;94.71;103626.13;5057013;27;96560;-27
2024/01/27 04:39:31;;;;;;;1.48;0.63;;;;;;;3.84;95.02;103643.22;5056908;27;96775;-27
2024/01/27 04:41:56;;;;;;;1.05;0.95;;;;;;;3.83;95.37;103639.63;5056378;27;98083;-27
2024/01/27 04:44:22;;;;;;;1.20;1.10;;;;;;;3.83;95.22;103636.94;5056239;27;99235;-28
2024/01/27 04:46:48;;;;;;;2.15;1.55;;;;;;;3.81;95.43;103624.41;5056843;27;96636;-28
2024/01/27 04:49:14;;;;;;;0.63;0.52;;;;;;;3.81;95.18;103619.97;5056778;27;96844;-27
2024/01/27 04:51:40;;;;;;;0.75;0.70;;;;;;;3.73;94.68;103610.91;5054804;27;100907;-27
2024/01/27 04:54:05;;;;;;;2.53;1.63;;;;;;;3.74;94.62;103623.47;5055631;27;99240;-28
2024/01/27 04:56:30;;;;;;;6.57;0.80;;;;;;;3.76;95.38;103640.44;5055549;27;96539;-29
2024/01/27 04:58:55;;;;;;;1.02;0.85;;;;;;;3.71;95.07;103636.81;5056024;27;96912;-27
2024/01/27 05:01:21;;;;;;;1.92;1.38;;;;;;;3.70;95.01;103632.34;5056120;27;98057;-27
2024/01/27 05:03:47;;;;;;;0.65;0.65;;;;;;;3.72;95.05;103645.72;5056012;27;99188;-29
2024/01/27 05:06:13;;;;;;;2.85;0.95;;;;;;;3.66;95.51;103630.50;5056175;27;96570;-28
2024/01/27 05:08:38;;;;;;;1.42;0.85;;;;;;;3.68;95.24;103636.78;5054968;27;96784;-28
2024/01/27 05:11:04;;;;;;;2.30;1.50;;;;;;;3.65;95.19;103625.09;5055689;27;99447;-27
2024/01/27 05:13:30;;;;;;;1.55;1.05;;;;;;;3.67;95.32;103632.31;5054867;27;100812;-28
2024/01/27 05:15:56;;;;;;;0.57;0.55;;;;;;;3.66;95.07;103627.81;5056418;27;96496;-27
2024/01/27 05:18:21;;;;;;;1.25;1.15;;;;;;;3.67;95.38;103636.75;5054661;27;96803;-27
2024/01/27 05:20:47;;;;;;;1.42;0.60;;;;;;;3.63;95.46;103629.56;5055473;27;97508;-28
2024/01/27 05:23:12;;;;;;;0.57;0.52;;;;;;;3.63;95.76;103632.25;5055839;27;97337;-31
2024/01/27 05:25:39;;;;;;;1.08;1.02;;;;;;;3.65;95.26;103628.69;5055811;27;96584;-27
2024/01/27 05:28:04;;;;;;;1.42;1.20;;;;;;;3.69;95.37;103643.03;5056202;27;96742;-28
2024/01/27 05:30:30;;;;;;;0.20;0.20;;;;;;;3.63;95.19;103624.22;5055687;27;97458;-27
2024/01/27 05:32:56;;;;;;;1.90;1.10;;;;;;;3.66;95.98;103638.53;5055862;27;97168;-27
2024/01/27 05:35:21;;;;;;;0.70;0.68;;;;;;;3.63;95.37;103629.56;5054543;27;96638;-28
2024/01/27 05:37:46;;;;;;;0.77;0.68;;;;;;;3.65;95.37;103638.50;5056284;27;96785;-28
2024/01/27 05:40:12;;;;;;;3.17;1.45;;;;;;;3.58;94.95;103637.56;5055325;27;99447;-28
2024/01/27 05:42:40;;;;;;;0.70;0.70;;;;;;;3.55;95.21;103629.44;5055639;27;97799;-28
2024/01/27 05:45:06;;;;;;;1.23;0.85;;;;;;;3.54;95.19;103641.94;5053920;27;96631;-27
2024/01/27 05:47:31;;;;;;;1.80;1.30;;;;;;;3.55;95.31;103646.44;5054243;27;96835;-27
2024/01/27 05:49:57;;;;;;;2.83;1.02;;;;;;;3.50;95.61;103625.81;5055832;27;96980;-27
2024/01/27 05:52:22;;;;;;;3.42;0.60;;;;;;;3.48;95.03;103630.25;5055516;27;97246;-28
2024/01/27 05:54:47;;;;;;;0.77;0.73;;;;;;;3.48;95.12;103641.91;5054904;27;96605;-28
2024/01/27 05:57:13;;;;;;;1.20;1.00;;;;;;;3.42;94.59;103633.75;5055747;27;96761;-27
2024/01/27 05:59:38;;;;;;;1.27;0.85;;;;;;;3.34;95.56;103630.97;5055120;27;97410;-27
2024/01/27 06:02:03;;;;;;;3.58;1.10;;;;;;;3.42;95.21;103638.22;5055667;27;97291;-27
2024/01/27 06:04:31;;;;;;;1.13;0.80;;;;;;;3.36;95.23;103629.22;5055655;27;96615;-27
2024/01/27 06:06:56;;;;;;;0.65;0.57;;;;;;;3.33;94.98;103617.56;5054507;27;96768;-29
2024/01/27 06:09:21;;;;;;;0.98;0.60;;;;;;;3.35;95.29;103623.84;5054641;27;97904;-27
2024/01/27 06:11:47;;;;;;;0.68;0.68;;;;;;;3.33;95.08;103615.78;5055005;27;99532;-27
2024/01/27 06:14:12;;;;;;;0.82;0.63;;;;;;;3.35;95.14;103616.69;5055278;27;96523;-28
2024/01/27 06:16:37;;;;;;;1.27;1.17;;;;;;;3.31;94.84;103617.56;5055351;27;96819;-27
2024/01/27 06:19:03;;;;;;;0.55;0.55;;;;;;;3.31;95.23;103628.28;5055239;27;97336;-27
2024/01/27 06:21:28;;;;;;;0.65;0.63;;;;;;;3.28;95.35;103617.50;5055025;27;97916;-27
2024/01/27 06:23:53;;;;;;;0.85;0.75;;;;;;;3.30;95.29;103623.78;5055046;27;96659;-28
2024/01/27 06:26:20;;;;;;;4.20;1.42;;;;;;;3.23;95.09;103610.28;5055415;27;96803;-28
2024/01/27 06:28:45;;;;;;;0.30;0.22;;;;;;;3.35;95.32;103630.09;5053369;27;101298;-28
2024/01/27 06:31:11;;;;;;;0.25;0.25;;;;;;;3.36;95.46;103642.63;5054861;27;97380;-27
2024/01/27 06:33:37;;;;;;;1.27;1.13;;;;;;;3.34;95.54;103648.84;5054215;27;96638;-27
2024/01/27 06:36:02;;;;;;;1.38;1.10;;;;;;;3.30;95.29;103649.66;5055213;27;96862;-27
2024/01/27 06:38:28;;;;;;;1.33;1.00;;;;;;;3.25;95.29;103636.22;5054353;27;99245;-27
2024/01/27 06:40:53;;;;;;;3.45;0.82;;;;;;;3.25;95.33;103648.72;5054401;27;99141;-28
2024/01/27 06:43:19;;;;;;;1.55;1.00;;;;;;;3.22;95.52;103648.66;5055008;27;96627;-27
2024/01/27 06:45:44;;;;;;;3.17;1.02;;;;;;;3.23;95.94;103656.72;5055140;27;96778;-28
2024/01/27 06:48:10;;;;;;;1.40;0.47;;;;;;;3.22;96.21;103657.59;5054701;27;97843;-27
2024/01/27 06:50:35;;;;;;;0.68;0.50;;;;;;;3.26;96.00;103664.78;5054927;27;97021;-27
2024/01/27 06:53:01;;;;;;;1.92;1.33;;;;;;;3.24;96.11;103658.50;5054817;27;96726;-28
2024/01/27 06:55:27;;;;;;;0.55;0.45;;;;;;;3.20;96.03;103659.34;5055144;27;96881;-27
2024/01/27 06:57:52;;;;;;;0.73;0.40;;;;;;;3.16;95.87;103661.06;5051985;27;100769;-27
2024/01/27 07:00:18;;;;;;;0.68;0.60;;;;;;;3.16;95.98;103652.16;5054210;27;99245;-28
2024/01/27 07:02:44;;;;;;;1.00;0.70;;;;;;;3.27;95.71;103666.59;5053164;27;97502;-27
2024/01/27 07:05:09;;;;;;;1.20;0.85;;;;;;;3.27;95.27;103666.59;5054637;27;96865;-27
2024/01/27 07:07:35;;;;;;;1.65;1.55;;;;;;;3.21;95.42;103669.19;5054338;27;97922;-28
2024/01/27 07:10:01;;;;;;;1.13;1.05;;;;;;;3.19;96.35;103671.84;5054038;27;99024;-27
2024/01/27 07:12:26;;;;;;;1.58;1.48;;;;;;;3.21;96.06;103669.19;5055025;27;96499;-28
2024/01/27 07:14:52;;;;;;;1.95;1.25;;;;;;;3.18;96.38;103658.44;5054822;27;96761;-27
2024/01/27 07:17:17;;;;;;;2.42;1.27;;;;;;;3.19;96.02;103650.44;5054081;27;99467;-28
2024/01/27 07:19:43;;;;;;;1.50;0.65;;;;;;;3.27;96.52;103660.34;5055509;27;99140;-27
2024/01/27 07:22:08;;;;;;;2.40;1.30;;;;;;;3.23;96.19;103659.38;5057406;27;96654;-29
2024/01/27 07:24:33;;;;;;;1.38;0.85;;;;;;;3.26;96.00;103661.22;5058183;27;96762;-27
2024/01/27 07:27:03;;;;;;;1.52;1.17;;;;;;;3.23;96.16;103664.75;5057681;27;98112;-27
2024/01/27 07:29:29;;;;;;;1.85;1.38;;;;;;;3.27;96.39;103665.72;5056116;27;101049;-28
2024/01/27 07:31:54;;;;;;;0.47;0.43;;;;;;;3.25;96.29;103660.31;5057755;27;96554;-27
2024/01/27 07:34:20;;;;;;;3.25;1.73;;;;;;;3.24;96.46;103657.59;5057882;27;96659;-28
2024/01/27 07:36:45;;;;;;;1.42;1.20;;;;;;;3.25;96.08;103663.00;5057329;27;97450;-28
2024/01/27 07:39:11;;;;;;;2.63;1.70;;;;;;;3.23;96.38;103656.72;5057702;27;99222;-28
2024/01/27 07:41:37;;;;;;;1.20;1.10;;;;;;;3.26;96.39;103664.78;5056182;27;97356;-27
2024/01/27 07:44:13;;;;;;;2.55;1.52;;;;;;;3.23;96.58;103659.38;5057798;27;96783;-28
2024/01/27 07:46:40;;;;;;;1.05;0.70;;;;;;;3.24;96.31;103649.56;5055494;27;100901;-28
2024/01/27 07:49:06;;;;;;;1.33;0.63;;;;;;;3.24;96.79;103645.09;5055811;27;100719;-28
2024/01/27 07:51:32;;;;;;;1.45;1.15;;;;;;;3.25;96.48;103646.03;5056014;27;96543;-29
2024/01/27 07:53:58;;;;;;;0.40;0.32;;;;;;;3.25;96.77;103646.03;5057403;27;96763;-27
2024/01/27 07:56:24;;;;;;;0.65;0.65;;;;;;;3.26;96.57;103647.81;5055614;27;101386;-28
2024/01/27 07:58:49;;;;;;;0.95;0.85;;;;;;;3.28;96.28;103646.97;5056035;27;99116;-27
2024/01/27 08:01:18;;;;;;;1.58;1.45;;;;;;;3.28;95.76;103641.59;5057246;27;96465;-28
2024/01/27 08:03:44;;;;;;;0.57;0.57;;;;;;;3.27;96.46;103644.28;5056247;27;96837;-27
2024/01/27 08:06:17;;;;;;;1.73;0.57;;;;;;;3.34;96.02;103664.91;5057117;27;98097;-27
2024/01/27 08:08:47;;;;;;;1.80;0.95;;;;;;;3.29;96.32;103656.81;5055461;27;100507;-27
2024/01/27 08:11:14;;;;;;;3.08;1.27;;;;;;;3.34;96.56;103662.25;5055345;27;96667;-29
2024/01/27 08:13:40;;;;;;;1.13;0.40;;;;;;;3.33;97.62;103655.06;5056839;27;96841;-28
2024/01/27 08:16:06;;;;;;;1.55;0.98;;;;;;;3.40;97.16;103664.97;5057012;27;97518;-28
2024/01/27 08:18:31;;;;;;;3.17;1.55;;;;;;;3.54;96.94;103670.53;5056932;27;97304;-28
2024/01/27 08:20:57;;;;;;;0.40;0.40;;;;;;;3.60;96.05;103670.63;5057235;27;96707;-27
2024/01/27 08:23:23;;;;;;;1.13;0.70;;;;;;;3.65;95.02;103676.03;5057496;27;96757;-27
2024/01/27 08:25:52;;;;;;;1.02;0.80;;;;;;;3.54;95.90;103663.38;5055191;27;100980;-28
2024/01/27 08:28:17;;;;;;;0.85;0.73;;;;;;;3.48;96.37;103671.38;5056934;27;97936;-28
2024/01/27 08:30:43;;;;;;;2.20;1.33;;;;;;;3.54;96.55;103681.25;5056074;27;96605;-29
2024/01/27 08:33:08;;;;;;;1.05;0.95;;;;;;;3.52;97.39;103689.25;5056823;27;96771;-27
2024/01/27 08:35:34;;;;;;;1.40;1.17;;;;;;;3.50;97.36;103679.41;5056114;27;97385;-27
2024/01/27 08:37:59;;;;;;;1.23;1.10;;;;;;;3.52;98.72;103696.41;5056718;27;97339;-27
2024/01/27 08:40:25;;;;;;;1.60;0.98;;;;;;;3.50;97.97;103698.16;5056668;27;96587;-27
2024/01/27 08:42:50;;;;;;;2.50;1.40;;;;;;;3.36;99.71;103696.22;5057008;27;97120;-28
2024/01/27 08:45:16;;;;;;;0.65;0.65;;;;;;;3.31;100.00;103687.22;5056458;27;97877;-28
2024/01/27 08:47:42;;;;;;;1.80;1.08;;;;;;;3.39;100.00;103700.72;5054759;27;100906;-28
2024/01/27 08:50:07;;;;;;;7.97;1.30;;;;;;;3.40;100.00;103694.47;5056899;27;96805;-27
2024/01/27 08:52:33;;;;;;;1.23;1.10;;;;;;;3.43;100.00;103698.97;5056756;27;97529;-27
2024/01/27 08:54:58;;;;;;;0.57;0.57;;;;;;;3.46;100.00;103685.63;5056035;27;97931;-27
2024/01/27 08:57:23;;;;;;;1.48;1.08;;;;;;;3.47;100.00;103690.97;5055014;27;97748;-27
2024/01/27 08:59:49;;;;;;;0.85;0.80;;;;;;;3.54;100.00;103692.88;5056184;27;96514;-27
2024/01/27 09:02:15;;;;;;;1.55;1.08;;;;;;;3.57;99.94;103692.00;5054670;27;97041;-27
2024/01/27 09:04:40;;;;;;;0.80;0.80;;;;;;;3.63;100.00;103689.44;5056048;27;99377;-27
2024/01/27 09:07:05;;;;;;;2.83;1.83;;;;;;;3.70;100.00;103690.41;5056152;27;97768;-27
2024/01/27 09:09:30;;;;;;;1.58;1.05;;;;;;;3.70;100.00;103685.94;5056357;27;96828;-28
2024/01/27 09:11:56;;;;;;;0.47;0.47;;;;;;;3.77;100.00;103698.53;5056412;27;96671;-28
2024/01/27 09:14:21;;;;;;;2.10;1.73;;;;;;;3.79;100.00;103699.47;5055586;27;99334;-27
2024/01/27 09:16:47;;;;;;;0.93;0.82;;;;;;;3.81;99.07;103711.13;5055944;27;99061;-28
2024/01/27 09:19:12;;;;;;;2.85;1.77;;;;;;;3.88;98.74;103703.13;5056265;27;96447;-28
2024/01/27 09:21:37;;;;;;;2.60;1.23;;;;;;;3.92;98.91;103704.97;5056362;27;96733;-28
2024/01/27 09:24:03;;;;;;;5.47;1.30;;;;;;;3.98;98.66;103703.28;5055139;27;99279;-27
2024/01/27 09:26:29;;;;;;;1.88;1.20;;;;;;;4.03;97.97;103714.06;5054354;27;99047;-28
2024/01/27 09:28:54;;;;;;;1.25;0.90;;;;;;;4.01;97.67;103703.31;5055705;27;96784;-27
2024/01/27 09:31:23;;;;;;;1.42;0.55;;;;;;;4.14;97.90;103715.06;5055777;27;96744;-27
2024/01/27 09:33:51;;;;;;;2.17;1.13;;;;;;;4.16;98.23;103702.56;5055800;27;97354;-27
2024/01/27 09:36:17;;;;;;;2.47;2.22;;;;;;;4.24;97.50;103698.22;5054089;27;101514;-28
2024/01/27 09:38:42;;;;;;;2.20;1.55;;;;;;;4.33;97.58;103700.06;5054400;27;96562;-27
2024/01/27 09:41:09;;;;;;;3.03;1.00;;;;;;;4.38;97.85;103700.13;5056281;27;97060;-28
2024/01/27 09:43:37;;;;;;;1.15;1.05;;;;;;;4.52;97.61;103711.00;5054117;27;100806;-27
2024/01/27 09:46:02;;;;;;;1.33;1.23;;;;;;;4.61;97.21;103721.84;5053739;27;100983;-27
2024/01/27 09:48:29;;;;;;;3.08;1.40;;;;;;;4.61;97.49;103711.09;5054162;27;96576;-30
2024/01/27 09:50:58;;;;;;;1.10;0.82;;;;;;;4.77;97.57;103712.16;5053354;27;97199;-28
2024/01/27 09:53:23;;;;;;;1.65;0.98;;;;;;;4.93;97.08;103730.16;5052156;27;100890;-27
2024/01/27 09:55:50;;;;;;;1.30;0.85;;;;;;;5.05;96.82;103734.75;5054899;27;99303;-28
2024/01/27 09:58:15;;;;;;;2.10;1.23;;;;;;;5.20;95.93;103734.00;5053572;27;96808;-27
2024/01/27 10:00:41;;;;;;;1.55;1.17;;;;;;;5.29;95.98;103731.34;5054242;27;96799;-27
2024/01/27 10:03:07;;;;;;;1.80;1.23;;;;;;;5.40;95.10;103726.06;5054922;27;99260;-27
2024/01/27 10:05:34;;;;;;;0.73;0.73;;;;;;;5.53;94.95;103739.59;5053970;27;100888;-28
2024/01/27 10:08:00;;;;;;;1.92;1.25;;;;;;;5.64;94.85;103726.19;5055431;27;96690;-27
2024/01/27 10:10:25;;;;;;;1.45;1.15;;;;;;;5.71;94.83;103735.19;5055520;27;96869;-27
2024/01/27 10:12:53;;;;;;;4.43;0.90;;;;;;;5.84;94.18;103737.06;5054322;27;99279;-27
2024/01/27 10:15:20;;;;;;;1.48;1.00;;;;;;;5.90;93.94;103730.81;5053475;27;100717;-27
2024/01/27 10:17:46;;;;;;;2.47;0.88;;;;;;;6.08;93.93;103744.38;5053866;27;96575;-28
2024/01/27 10:20:13;;;;;;;0.98;0.77;;;;;;;6.11;93.66;103739.00;5055406;27;96782;-27
2024/01/27 10:22:44;;;;;;;2.85;1.15;;;;;;;6.25;93.39;103739.06;5053550;27;101441;-28
2024/01/27 10:25:10;;;;;;;1.27;1.10;;;;;;;6.25;92.24;103738.16;5055015;27;97305;-27
2024/01/27 10:27:36;;;;;;;1.42;1.10;;;;;;;6.42;92.87;103732.84;5053560;27;96824;-29
2024/01/27 10:30:02;;;;;;;1.98;1.17;;;;;;;6.58;92.87;103740.06;5055559;27;96736;-27
2024/01/27 10:32:28;;;;;;;1.60;0.90;;;;;;;6.71;92.49;103728.38;5053467;27;99059;-27
2024/01/27 10:35:09;;;;;;;3.20;1.35;;;;;;;6.82;91.63;103741.88;5054606;27;99159;-28
2024/01/27 10:37:35;;;;;;;1.33;1.03;;;;;;;6.94;92.02;103738.28;5054484;27;96828;-27
2024/01/27 10:40:07;;;;;;;2.10;1.17;;;;;;;7.01;90.13;103734.69;5052558;27;96831;-28
2024/01/27 10:42:34;;;;;;;3.55;1.25;;;;;;;7.05;89.91;103728.38;5054165;27;99449;-27
2024/01/27 10:45:05;;;;;;;2.03;0.93;;;;;;;7.19;90.48;103737.34;5052941;27;100548;-27
2024/01/27 10:47:32;;;;;;;1.15;0.93;;;;;;;7.30;90.15;103747.25;5054699;27;96731;-27
2024/01/27 10:50:00;;;;;;;1.42;0.98;;;;;;;7.42;88.92;103752.63;5053537;27;96829;-27
2024/01/27 10:52:30;;;;;;;1.90;1.08;;;;;;;7.66;89.38;103754.38;5054759;27;97427;-27
2024/01/27 10:55:02;;;;;;;1.65;1.08;;;;;;;7.80;88.59;103759.75;5056303;27;100809;-27
2024/01/27 10:57:29;;;;;;;0.43;0.43;;;;;;;7.90;86.98;103748.00;5057854;27;96812;-27
2024/01/27 10:59:55;;;;;;;3.95;1.38;;;;;;;7.92;86.60;103748.91;5058616;27;96498;-28
2024/01/27 11:02:22;;;;;;;1.58;1.02;;;;;;;8.07;86.83;103738.03;5056143;27;101013;-29
2024/01/27 11:04:54;;;;;;;1.48;1.08;;;;;;;8.27;86.75;103740.66;5056503;27;100849;-27
2024/01/27 11:07:22;;;;;;;;;;;;;;;8.28;85.82;103737.03;5057273;27;96667;-27
2024/01/27 11:09:50;;;;;;;1.40;0.65;;;;;;;8.36;84.74;103728.88;5056859;27;96837;-28
2024/01/27 11:12:16;;;;;;;1.17;0.80;;;;;;;8.42;84.60;103731.59;5056375;27;100019;-27
2024/01/27 11:14:41;;;;;;;1.25;1.15;;;;;;;8.49;84.52;103727.94;5056221;27;100721;-27
2024/01/27 11:17:07;;;;;;;3.15;1.55;;;;;;;8.52;84.29;103728.84;5055452;27;97148;-29
2024/01/27 11:19:34;;;;;;;1.27;0.95;;;;;;;8.54;83.91;103716.22;5057518;27;96979;-27
2024/01/27 11:22:04;;;;;;;1.52;0.90;;;;;;;8.61;83.23;103709.88;5054394;27;101131;-28
2024/01/27 11:24:30;;;;;;;2.22;2.00;;;;;;;8.66;83.36;103716.13;5056437;27;101091;-27
2024/01/27 11:27:06;;;;;;;2.90;1.15;;;;;;;8.77;82.75;103727.78;5057604;27;96620;-27